Bridgeport Valley, California Weather observations

Data are for 10 minute period ending at time listed.
 Day   Time   Solar   Ave.   Ave.  Ave.  Vector  Max.   Baro.   Total    
  of    of     Rad.   Air    Rel.  Wind   Wind   Wind  Press.  Precip.   
Year   Day            Temp.  Hum.  Speed  Dir.   Gust                    
2014   (PST)  Kw/m2    F      %     mph   deg.    mph    mb.     in.     
-------------------------------------------------------------------------
 330   19:30   0.00   39.7    42    3.4   192     4.8   810.7    0.00 
 330   19:40   0.00   38.9    43    3.0   173     4.7   810.7    0.00 
 330   19:50   0.00   36.6    48    3.4   242     4.9   810.8    0.00 
 330   20:00   0.00   39.9    42    3.3   242     4.7   810.8    0.00 
 330   20:10   0.00   39.9    41    4.3   156     5.7   810.8    0.00 
 330   20:20   0.00   37.7    46    4.5   158     7.6   810.8    0.00 
 330   20:30   0.00   40.2    41    4.2   167     5.9   810.8    0.00 
 330   20:40   0.00   34.2    52    2.4   207     5.8   810.9    0.00 
 330   20:50   0.00   35.4    50    4.7   166     7.4   810.8    0.00 
 330   21:00   0.00   34.0    52    2.9   169     5.8   810.7    0.00 
 330   21:10   0.00   33.7    55    3.7   232     6.7   810.6    0.00 
 330   21:20   0.00   31.8    58    3.6   264     6.2   810.6    0.00 
 330   21:30   0.00   32.4    57    1.4    73     3.3   810.6    0.00 
 330   21:40   0.00   35.1    51    1.9   281     4.1   810.7    0.00 
 330   21:50   0.00   31.1    59    3.0    85     6.5   810.7    0.00 
 330   22:00   0.00   27.2    66    1.9   148     3.5   810.7    0.00 
 330   22:10   0.00   27.8    67    2.3   230     6.7   810.6    0.00 
 330   22:20   0.00   30.4    61    3.1   247     7.2   810.6    0.00 
 330   22:30   0.00   32.7    57    1.1   292     6.4   810.6    0.00 
 330   22:40   0.00   31.2    60    2.8   289     6.8   810.6    0.00 
 330   22:50   0.00   29.6    63    1.1   278     4.2   810.6    0.00 
 330   23:00   0.00   28.6    69    2.7   182     4.2   810.6    0.00 
 330   23:10   0.00   28.7    69    1.9   230     6.3   810.5    0.00 
 330   23:20   0.00   27.3    72    0.9   325     4.7   810.6    0.00 
 330   23:30   0.00   29.5    67    1.6   298     5.8   810.6    0.00 
 330   23:40   0.00   30.2    63    0.0    14     0.8   810.6    0.00 
 330   23:50   0.00   27.3    70    1.3   324     5.2   810.5    0.00 
 331    0:00   0.00   26.1    73    3.6   253     6.6   810.6    0.00 
 331    0:10   0.00   29.3    66    3.5   243     7.2   810.5    0.00 
 331    0:20   0.00   28.7    67    3.9   304     8.3   810.4    0.00 
 331    0:30   0.00   28.9    66    1.8   290     5.6   810.4    0.00 
 331    0:40   0.00   29.3    66    1.5    64     5.0   810.3    0.00 
 331    0:50   0.00   27.0    72    0.8   208     2.6   810.3    0.00 
 331    1:00   0.00   27.0    74    1.6   170     3.9   810.2    0.00 
 331    1:10   0.00   25.6    75    2.1   169     3.2   810.2    0.00 
 331    1:20   0.00   25.2    77    1.5   199     4.3   810.1    0.00 
 331    1:30   0.00   25.4    75    2.3   226     4.8   810.2    0.00 
 331    1:40   0.00   24.2    76    2.6   243     7.1   810.2    0.00 
 331    1:50   0.00   24.2    75    3.3   245     8.2   810.1    0.00 
 331    2:00   0.00   24.2    74    2.2   246     6.5   810.1    0.00 
 331    2:10   0.00   23.2    78    2.3   184     7.5   810.0    0.00 
 331    2:20   0.00   22.5    79    2.3   198     5.6   810.0    0.00 
 331    2:30   0.00   21.6    83    1.9   190     7.6   810.0    0.00 
 331    2:40   0.00   22.5    82    0.9   341     2.4   809.9    0.00 
 331    2:50   0.00   21.2    82    3.9   180     7.6   809.9    0.00 
 331    3:00   0.00   22.2    83    2.8   247     6.2   809.8    0.00 
 331    3:10   0.00   22.8    78    3.7   252     6.0   809.7    0.00 
 331    3:20   0.00   21.9    80    3.6   264     7.3   809.6    0.00 
 331    3:30   0.00   21.1    80    3.5   237     7.5   809.6    0.00 
 331    3:40   0.00   20.6    84    2.9   181     6.9   809.5    0.00 
 331    3:50   0.00   21.3    82    3.5   225     6.8   809.5    0.00 
 331    4:00   0.00   21.2    82    3.9   264     6.1   809.4    0.00 
 331    4:10   0.00   21.4    78    3.0   305     5.7   809.3    0.00 
 331    4:20   0.00   19.6    82    3.2    75     6.1   809.4    0.00 
 331    4:30   0.00   17.9    85    1.4   126     3.3   809.4    0.00 
 331    4:40   0.00   18.7    83    3.7   166     6.6   809.3    0.00 
 331    4:50   0.00   17.9    86    2.9   263     7.2   809.3    0.00 
 331    5:00   0.00   19.7    84    3.5   280     8.0   809.2    0.00 
 331    5:10   0.00   20.0    81    3.2   276     5.8   809.2    0.00 
 331    5:20   0.00   19.2    81    2.4   231     5.0   809.2    0.00 
 331    5:30   0.00   17.2    88    2.5   163     4.9   809.2    0.00 
 331    5:40   0.00   18.3    88    3.8   209     7.3   809.2    0.00 
 331    5:50   0.00   20.4    84    4.1   224     6.2   809.3    0.00 
 331    6:00   0.00   21.5    80    3.2   245     6.9   809.2    0.00 
 331    6:10   0.00   19.4    82    3.7   249     7.7   809.3    0.00 
 331    6:20   0.00   18.9    86    3.6   275     4.9   809.3    0.00 
 331    6:30   0.00   18.9    83    3.3    42     5.6   809.4    0.00 
 331    6:40   0.00   17.2    88    1.7    29     3.9   809.6    0.00 
 331    6:50   0.00   17.2    88    2.3   196     5.8   809.6    0.00 
 331    7:00   0.00   18.3    88    4.0   245     8.0   809.6    0.00 
 331    7:10   0.01   20.7    82    3.3   258     7.0   809.5    0.00 
 331    7:20   0.02   20.1    84    3.7   239     8.8   809.6    0.00 
 331    7:30   0.03   22.0    82    1.7   236     4.2   809.5    0.00 
 331    7:40   0.04   22.4    83    2.6   330     5.1   809.5    0.00 
 331    7:50   0.06   22.6    83    1.2   104     2.9   809.6    0.00 
 331    8:00   0.07   22.2    84    3.8    89     5.8   809.6    0.00 
 331    8:10   0.08   23.4    83    1.5   158     3.9   809.5    0.00 
 331    8:20   0.09   24.8    83    2.9   241     4.6   809.5    0.00 
 331    8:30   0.10   26.1    79    2.9   312     6.9   809.4    0.00 
 331    8:40   0.12   28.4    74    2.4   336     4.9   809.4    0.00 
 331    8:50   0.18   29.7    75    2.2    64     4.0   809.3    0.00 
 331    9:00   0.27   30.9    71    2.3    68     4.6   809.2    0.00 
 331    9:10   0.30   34.7    60    1.2   146     2.3   809.1    0.00 
 331    9:20   0.31   38.1    50    0.9   242     3.1   809.0    0.00 
 331    9:30   0.35   40.6    45    0.9   214     2.7   809.0    0.00 
 331    9:40   0.45   43.2    40    1.4   312     3.1   808.9    0.00 
 331    9:50   0.50   45.9    35    1.6   329     3.7   809.1    0.00 
 331   10:00   0.41   48.5    32    1.5   161     3.6   809.2    0.00 
 331   10:10   0.47   51.0    30    1.2   142     3.6   809.1    0.00 
 331   10:20   0.58   51.8    30    2.2   152     4.4   809.1    0.00 
 331   10:30   0.57   53.3    29    2.1   223     5.4   809.0    0.00 
 331   10:40   0.55   52.9    29    3.1   236     5.7   808.9    0.00 
 331   10:50   0.58   54.4    27    2.5   204     5.5   808.7    0.00 
 331   11:00   0.61   57.7    23    1.4   151     3.4   808.5    0.00 
 331   11:10   0.61   61.2    18    1.2    13     2.6   808.2    0.00 
 331   11:20   0.58   63.4    13    2.2   313     4.1   808.1    0.00 
 331   11:30   0.59   64.4    13    2.3   152     5.6   807.9    0.00 
 331   11:40   0.57   65.1    12    3.8   279     7.7   807.7    0.00 
 331   11:50   0.59   64.8    12    5.5   250    10.7   807.5    0.00 
 331   12:00   0.58   65.2    12    2.9   294    10.7   807.4    0.00 
 331   12:10   0.56   65.4    12    4.2   264    11.5   807.2    0.00 
 331   12:20   0.56   65.6    12    4.2   235    10.4   807.0    0.00 
 331   12:30   0.55   65.3    12    6.8   248    12.3   806.8    0.00 
 331   12:40   0.53   65.3    12    5.3   256    14.2   806.8    0.00 
 331   12:50   0.53   65.4    12    8.1   249    15.8   806.6    0.00 
 331   13:00   0.52   65.5    12   11.4   250    17.4   806.5    0.00 
 331   13:10   0.50   65.2    12   11.2   254    17.4   806.4    0.00 
 331   13:20   0.49   64.8    12   13.2   264    22.3   806.3    0.00 
 331   13:30   0.47   65.2    12   12.4   250    20.9   806.2    0.00 
 331   13:40   0.46   65.1    12   11.9   253    20.5   806.1    0.00 
 331   13:50   0.44   64.6    13   12.3   260    21.8   806.1    0.00 
 331   14:00   0.42   64.5    13   13.2   253    20.1   806.0    0.00 
 331   14:10   0.40   64.5    13   12.2   252    21.5   806.0    0.00 
 331   14:20   0.37   63.8    13   15.4   260    22.6   805.9    0.00 
 331   14:30   0.35   63.6    13   14.1   259    20.8   805.9    0.00 
 331   14:40   0.32   63.5    13   11.9   258    20.2   806.0    0.00 
 331   14:50   0.30   63.2    14   12.8   252    20.0   806.0    0.00 
 331   15:00   0.27   62.4    14   14.5   260    22.8   806.0    0.00 
 331   15:10   0.24   62.1    14   13.0   254    20.2   806.0    0.00 
 331   15:20   0.21   61.6    15   11.9   256    20.8   806.0    0.00 
 331   15:30   0.19   61.3    15   10.8   250    15.4   806.1    0.00 
 331   15:40   0.16   60.5    16    9.7   255    17.8   806.1    0.00 
 331   15:50   0.13   59.7    17    7.8   256    10.4   806.2    0.00 
 331   16:00   0.11   58.6    18    8.4   260    12.7   806.2    0.00 
 331   16:10   0.05   55.8    19    7.6   258    10.3   806.1    0.00 
 331   16:20   0.01   53.3    21    7.9   259    11.5   806.1    0.00 
 331   16:30   0.01   50.1    22    6.6   273     8.0   806.2    0.00 
 331   16:40   0.01   46.2    26    5.5   232     7.6   806.2    0.00 
 331   16:50   0.00   42.7    30    4.8   225     6.9   806.2    0.00 
 331   17:00   0.00   40.7    33    5.5   241     6.9   806.2    0.00 
 331   17:10   0.00   39.2    33    4.8   236     6.1   806.1    0.00 
 331   17:20   0.00   36.8    36    4.1   272     7.2   806.0    0.00 
 331   17:30   0.00   35.6    39    1.7   343     5.0   806.0    0.00 
 331   17:40   0.00   38.3    35    2.0    87     7.2   806.0    0.00 
 331   17:50   0.00   40.1    33    0.9   341     3.7   805.9    0.00 
 331   18:00   0.00   39.5    34    1.3   283     3.6   805.9    0.00 
 331   18:10   0.00   38.2    34    1.0    88     2.1   805.7    0.00 
 331   18:20   0.00   39.1    33    2.6    22     5.4   805.6    0.00 
 331   18:30   0.00   39.7    33    2.1   101     5.3   805.6    0.00 
 331   18:40   0.00   36.7    37    0.6   106     3.8   805.5    0.00 
 331   18:50   0.00   35.7    38    2.9   334     7.1   805.5    0.00 
 331   19:00   0.00   37.5    36    2.2     1     3.2   805.5    0.00 
 331   19:10   0.00   39.8    31    3.3   355     5.6   805.5    0.00 
 331   19:20   0.00   38.2    32    2.2    46     4.3   805.5    0.00 

Return to Bridgeport Valley graphs page.


Western Regional Climate Center,wrcc@dri.edu